sensor_id;sensor_type;location;lat;lon;timestamp;pressure;altitude;pressure_sealevel;temperature;humidity
70900;BME280;67902;52.154;5.430;2023-12-04T00:01:50;101415.63;;;0.57;100.00
70900;BME280;67902;52.154;5.430;2023-12-04T00:04:17;101407.63;;;0.57;100.00
70900;BME280;67902;52.154;5.430;2023-12-04T00:06:43;101406.81;;;0.57;100.00
70900;BME280;67902;52.154;5.430;2023-12-04T00:09:10;101407.47;;;0.59;100.00
70900;BME280;67902;52.154;5.430;2023-12-04T00:11:37;101402.13;;;0.59;100.00
70900;BME280;67902;52.154;5.430;2023-12-04T00:14:03;101394.81;;;0.61;100.00
70900;BME280;67902;52.154;5.430;2023-12-04T00:16:33;101391.31;;;0.61;100.00
70900;BME280;67902;52.154;5.430;2023-12-04T00:19:00;101400.31;;;0.59;100.00
70900;BME280;67902;52.154;5.430;2023-12-04T00:21:27;101398.47;;;0.60;100.00
70900;BME280;67902;52.154;5.430;2023-12-04T00:23:53;101394.81;;;0.61;100.00
70900;BME280;67902;52.154;5.430;2023-12-04T00:26:20;101388.47;;;0.62;100.00
70900;BME280;67902;52.154;5.430;2023-12-04T00:28:47;101388.47;;;0.62;100.00
70900;BME280;67902;52.154;5.430;2023-12-04T00:31:13;101380.66;;;0.61;100.00
70900;BME280;67902;52.154;5.430;2023-12-04T00:33:39;101389.50;;;0.61;100.00
70900;BME280;67902;52.154;5.430;2023-12-04T00:36:06;101374.16;;;0.63;100.00
70900;BME280;67902;52.154;5.430;2023-12-04T00:38:33;101384.81;;;0.63;100.00
70900;BME280;67902;52.154;5.430;2023-12-04T00:41:00;101370.53;;;0.64;100.00
70900;BME280;67902;52.154;5.430;2023-12-04T00:43:27;101375.84;;;0.64;100.00
70900;BME280;67902;52.154;5.430;2023-12-04T00:45:53;101370.53;;;0.64;100.00
70900;BME280;67902;52.154;5.430;2023-12-04T00:48:20;101359.84;;;0.64;100.00
70900;BME280;67902;52.154;5.430;2023-12-04T00:50:47;101371.50;;;0.63;100.00
70900;BME280;67902;52.154;5.430;2023-12-04T00:53:14;101375.00;;;0.64;100.00
70900;BME280;67902;52.154;5.430;2023-12-04T00:55:40;101366.19;;;0.63;100.00
70900;BME280;67902;52.154;5.430;2023-12-04T00:58:07;101358.19;;;0.63;100.00
70900;BME280;67902;52.154;5.430;2023-12-04T01:00:33;101354.84;;;0.61;100.00
70900;BME280;67902;52.154;5.430;2023-12-04T01:03:00;101356.03;;;0.58;100.00
70900;BME280;67902;52.154;5.430;2023-12-04T01:05:27;101355.19;;;0.58;100.00
70900;BME280;67902;52.154;5.430;2023-12-04T01:07:53;101359.69;;;0.57;100.00
70900;BME280;67902;52.154;5.430;2023-12-04T01:10:20;101349.22;;;0.56;100.00
70900;BME280;67902;52.154;5.430;2023-12-04T01:12:46;101357.19;;;0.56;100.00
70900;BME280;67902;52.154;5.430;2023-12-04T01:15:13;101357.19;;;0.56;100.00
70900;BME280;67902;52.154;5.430;2023-12-04T01:17:40;101357.84;;;0.58;100.00
70900;BME280;67902;52.154;5.430;2023-12-04T01:20:07;101341.69;;;0.59;100.00
70900;BME280;67902;52.154;5.430;2023-12-04T01:22:34;101344.53;;;0.58;100.00
70900;BME280;67902;52.154;5.430;2023-12-04T01:25:00;101337.53;;;0.57;100.00
70900;BME280;67902;52.154;5.430;2023-12-04T01:27:27;101335.88;;;0.56;100.00
70900;BME280;67902;52.154;5.430;2023-12-04T01:29:54;101334.03;;;0.56;100.00
70900;BME280;67902;52.154;5.430;2023-12-04T01:32:23;101330.56;;;0.56;100.00
70900;BME280;67902;52.154;5.430;2023-12-04T01:34:52;101329.72;;;0.55;100.00
70900;BME280;67902;52.154;5.430;2023-12-04T01:37:19;101326.03;;;0.56;100.00
70900;BME280;67902;52.154;5.430;2023-12-04T01:39:46;101319.91;;;0.56;100.00
70900;BME280;67902;52.154;5.430;2023-12-04T01:42:13;101326.38;;;0.53;100.00
70900;BME280;67902;52.154;5.430;2023-12-04T01:44:39;101313.22;;;0.52;100.00
70900;BME280;67902;52.154;5.430;2023-12-04T01:47:11;101313.22;;;0.52;100.00
70900;BME280;67902;52.154;5.430;2023-12-04T01:49:38;101316.06;;;0.50;100.00
70900;BME280;67902;52.154;5.430;2023-12-04T01:52:06;101325.88;;;0.50;100.00
70900;BME280;67902;52.154;5.430;2023-12-04T01:54:36;101314.41;;;0.49;100.00
70900;BME280;67902;52.154;5.430;2023-12-04T01:57:04;101303.75;;;0.49;100.00
70900;BME280;67902;52.154;5.430;2023-12-04T01:59:37;101309.06;;;0.49;100.00
70900;BME280;67902;52.154;5.430;2023-12-04T02:02:07;101304.56;;;0.50;100.00
70900;BME280;67902;52.154;5.430;2023-12-04T02:04:33;101299.25;;;0.50;100.00
70900;BME280;67902;52.154;5.430;2023-12-04T02:07:00;101302.06;;;0.48;100.00
70900;BME280;67902;52.154;5.430;2023-12-04T02:09:27;101293.22;;;0.48;100.00
70900;BME280;67902;52.154;5.430;2023-12-04T02:11:54;101286.91;;;0.49;100.00
70900;BME280;67902;52.154;5.430;2023-12-04T02:14:24;101286.09;;;0.48;100.00
70900;BME280;67902;52.154;5.430;2023-12-04T02:16:52;101281.59;;;0.49;100.00
70900;BME280;67902;52.154;5.430;2023-12-04T02:19:20;101286.91;;;0.49;100.00
70900;BME280;67902;52.154;5.430;2023-12-04T02:21:47;101284.25;;;0.49;100.00
70900;BME280;67902;52.154;5.430;2023-12-04T02:24:14;101286.91;;;0.49;100.00
70900;BME280;67902;52.154;5.430;2023-12-04T02:26:54;101277.94;;;0.50;100.00
70900;BME280;67902;52.154;5.430;2023-12-04T02:29:34;101281.25;;;0.52;100.00
70900;BME280;67902;52.154;5.430;2023-12-04T02:32:05;101274.25;;;0.51;100.00
70900;BME280;67902;52.154;5.430;2023-12-04T02:34:32;101275.09;;;0.51;100.00
70900;BME280;67902;52.154;5.430;2023-12-04T02:36:59;101272.28;;;0.53;100.00
70900;BME280;67902;52.154;5.430;2023-12-04T02:39:27;101260.44;;;0.55;100.00
70900;BME280;67902;52.154;5.430;2023-12-04T02:41:54;101255.97;;;0.56;100.00
70900;BME280;67902;52.154;5.430;2023-12-04T02:44:20;101247.97;;;0.56;100.00
70900;BME280;67902;52.154;5.430;2023-12-04T02:46:47;101247.13;;;0.55;100.00
70900;BME280;67902;52.154;5.430;2023-12-04T02:49:13;101236.28;;;0.57;100.00
70900;BME280;67902;52.154;5.430;2023-12-04T02:51:41;101234.66;;;0.56;100.00
70900;BME280;67902;52.154;5.430;2023-12-04T02:54:07;101234.66;;;0.56;100.00
70900;BME280;67902;52.154;5.430;2023-12-04T02:56:34;101225.13;;;0.53;100.00
70900;BME280;67902;52.154;5.430;2023-12-04T02:59:00;101227.00;;;0.53;100.00
70900;BME280;67902;52.154;5.430;2023-12-04T03:01:27;101227.00;;;0.53;100.00
70900;BME280;67902;52.154;5.430;2023-12-04T03:03:53;101219.00;;;0.53;100.00
70900;BME280;67902;52.154;5.430;2023-12-04T03:06:20;101217.00;;;0.55;100.00
70900;BME280;67902;52.154;5.430;2023-12-04T03:08:47;101219.66;;;0.55;100.00
70900;BME280;67902;52.154;5.430;2023-12-04T03:11:13;101214.13;;;0.56;100.00
70900;BME280;67902;52.154;5.430;2023-12-04T03:13:40;101209.66;;;0.57;100.00
70900;BME280;67902;52.154;5.430;2023-12-04T03:16:14;101194.69;;;0.56;100.00
70900;BME280;67902;52.154;5.430;2023-12-04T03:18:41;101198.16;;;0.56;100.00
70900;BME280;67902;52.154;5.430;2023-12-04T03:21:08;101195.34;;;0.58;100.00
70900;BME280;67902;52.154;5.430;2023-12-04T03:23:34;101198.00;;;0.58;100.00
70900;BME280;67902;52.154;5.430;2023-12-04T03:26:01;101192.66;;;0.58;100.00
70900;BME280;67902;52.154;5.430;2023-12-04T03:28:28;101193.31;;;0.60;100.00
70900;BME280;67902;52.154;5.430;2023-12-04T03:30:54;101187.34;;;0.58;100.00
70900;BME280;67902;52.154;5.430;2023-12-04T03:33:21;101186.69;;;0.56;100.00
70900;BME280;67902;52.154;5.430;2023-12-04T03:35:47;101179.34;;;0.58;100.00
70900;BME280;67902;52.154;5.430;2023-12-04T03:38:14;101177.69;;;0.57;100.00
70900;BME280;67902;52.154;5.430;2023-12-04T03:40:40;101165.84;;;0.59;100.00
70900;BME280;67902;52.154;5.430;2023-12-04T03:43:07;101165.84;;;0.59;100.00
70900;BME280;67902;52.154;5.430;2023-12-04T03:45:33;101172.84;;;0.61;100.00
70900;BME280;67902;52.154;5.430;2023-12-04T03:48:00;101164.00;;;0.60;100.00
70900;BME280;67902;52.154;5.430;2023-12-04T03:50:27;101154.34;;;0.59;100.00
70900;BME280;67902;52.154;5.430;2023-12-04T03:52:53;101153.53;;;0.58;100.00
70900;BME280;67902;52.154;5.430;2023-12-04T03:55:20;101150.69;;;0.60;100.00
70900;BME280;67902;52.154;5.430;2023-12-04T03:57:47;101151.53;;;0.61;100.00
70900;BME280;67902;52.154;5.430;2023-12-04T04:00:14;101146.34;;;0.59;100.00
70900;BME280;67902;52.154;5.430;2023-12-04T04:02:42;101140.88;;;0.61;100.00
70900;BME280;67902;52.154;5.430;2023-12-04T04:05:09;101145.03;;;0.63;100.00
70900;BME280;67902;52.154;5.430;2023-12-04T04:07:36;101138.84;;;0.63;100.00
70900;BME280;67902;52.154;5.430;2023-12-04T04:10:02;101134.72;;;0.60;100.00
70900;BME280;67902;52.154;5.430;2023-12-04T04:12:30;101122.38;;;0.59;100.00
70900;BME280;67902;52.154;5.430;2023-12-04T04:15:00;101122.38;;;0.59;100.00
70900;BME280;67902;52.154;5.430;2023-12-04T04:17:27;101122.38;;;0.59;100.00
70900;BME280;67902;52.154;5.430;2023-12-04T04:19:54;101117.06;;;0.59;99.84
70900;BME280;67902;52.154;5.430;2023-12-04T04:22:21;101115.06;;;0.61;99.93
70900;BME280;67902;52.154;5.430;2023-12-04T04:24:50;101111.72;;;0.59;99.59
70900;BME280;67902;52.154;5.430;2023-12-04T04:27:18;101112.56;;;0.59;100.00
70900;BME280;67902;52.154;5.430;2023-12-04T04:29:45;101101.56;;;0.63;100.00
70900;BME280;67902;52.154;5.430;2023-12-04T04:32:11;101108.72;;;0.62;99.60
70900;BME280;67902;52.154;5.430;2023-12-04T04:34:40;101103.38;;;0.62;99.25
70900;BME280;67902;52.154;5.430;2023-12-04T04:37:06;101102.41;;;0.63;99.72
70900;BME280;67902;52.154;5.430;2023-12-04T04:39:33;101101.41;;;0.64;99.37
70900;BME280;67902;52.154;5.430;2023-12-04T04:41:59;101096.06;;;0.64;99.13
70900;BME280;67902;52.154;5.430;2023-12-04T04:44:26;101092.38;;;0.65;99.16
70900;BME280;67902;52.154;5.430;2023-12-04T04:46:53;101101.06;;;0.67;98.70
70900;BME280;67902;52.154;5.430;2023-12-04T04:49:19;101092.56;;;0.64;99.31
70900;BME280;67902;52.154;5.430;2023-12-04T04:51:46;101089.72;;;0.65;98.70
70900;BME280;67902;52.154;5.430;2023-12-04T04:54:12;101095.88;;;0.66;98.80
70900;BME280;67902;52.154;5.430;2023-12-04T04:56:39;101098.41;;;0.67;98.79
70900;BME280;67902;52.154;5.430;2023-12-04T04:59:06;101089.72;;;0.65;98.74
70900;BME280;67902;52.154;5.430;2023-12-04T05:01:32;101092.38;;;0.65;98.74
70900;BME280;67902;52.154;5.430;2023-12-04T05:03:59;101095.06;;;0.65;98.44
70900;BME280;67902;52.154;5.430;2023-12-04T05:06:26;101089.72;;;0.65;98.53
70900;BME280;67902;52.154;5.430;2023-12-04T05:08:53;101087.06;;;0.65;98.83
70900;BME280;67902;52.154;5.430;2023-12-04T05:11:20;101081.72;;;0.65;98.15
70900;BME280;67902;52.154;5.430;2023-12-04T05:13:46;101084.41;;;0.65;98.34
70900;BME280;67902;52.154;5.430;2023-12-04T05:16:13;101087.06;;;0.65;98.15
70900;BME280;67902;52.154;5.430;2023-12-04T05:18:40;101082.41;;;0.67;98.43
70900;BME280;67902;52.154;5.430;2023-12-04T05:21:09;101077.22;;;0.66;97.61
70900;BME280;67902;52.154;5.430;2023-12-04T05:23:39;101065.09;;;0.63;98.02
70900;BME280;67902;52.154;5.430;2023-12-04T05:26:06;101068.59;;;0.64;98.35
70900;BME280;67902;52.154;5.430;2023-12-04T05:28:33;101065.94;;;0.64;98.44
70900;BME280;67902;52.154;5.430;2023-12-04T05:31:00;101067.75;;;0.63;98.01
70900;BME280;67902;52.154;5.430;2023-12-04T05:33:27;101065.28;;;0.62;98.51
70900;BME280;67902;52.154;5.430;2023-12-04T05:35:54;101063.63;;;0.61;98.47
70900;BME280;67902;52.154;5.430;2023-12-04T05:38:20;101062.63;;;0.62;98.43
70900;BME280;67902;52.154;5.430;2023-12-04T05:40:47;101055.28;;;0.64;98.14
70900;BME280;67902;52.154;5.430;2023-12-04T05:43:13;101061.44;;;0.64;97.56
70900;BME280;67902;52.154;5.430;2023-12-04T05:45:40;101046.44;;;0.63;97.51
70900;BME280;67902;52.154;5.430;2023-12-04T05:48:06;101036.44;;;0.65;97.58
70900;BME280;67902;52.154;5.430;2023-12-04T05:50:33;101035.44;;;0.66;97.79
70900;BME280;67902;52.154;5.430;2023-12-04T05:53:00;101031.94;;;0.66;97.75
70900;BME280;67902;52.154;5.430;2023-12-04T05:55:26;101028.28;;;0.67;97.44
70900;BME280;67902;52.154;5.430;2023-12-04T05:57:53;101025.44;;;0.68;97.30
70900;BME280;67902;52.154;5.430;2023-12-04T06:00:19;101031.44;;;0.70;96.52
70900;BME280;67902;52.154;5.430;2023-12-04T06:02:51;101031.06;;;0.73;95.70
70900;BME280;67902;52.154;5.430;2023-12-04T06:05:18;101029.22;;;0.74;96.56
70900;BME280;67902;52.154;5.430;2023-12-04T06:07:45;101032.09;;;0.72;96.40
70900;BME280;67902;52.154;5.430;2023-12-04T06:10:11;101033.06;;;0.71;95.91
70900;BME280;67902;52.154;5.430;2023-12-04T06:12:38;101018.13;;;0.70;95.75
70900;BME280;67902;52.154;5.430;2023-12-04T06:15:05;101010.13;;;0.70;95.60
70900;BME280;67902;52.154;5.430;2023-12-04T06:17:35;101015.44;;;0.70;95.96
70900;BME280;67902;52.154;5.430;2023-12-04T06:20:02;101018.13;;;0.70;96.50
70900;BME280;67902;52.154;5.430;2023-12-04T06:22:29;101020.78;;;0.70;96.29
70900;BME280;67902;52.154;5.430;2023-12-04T06:24:55;101021.41;;;0.72;95.67
70900;BME280;67902;52.154;5.430;2023-12-04T06:27:22;101017.09;;;0.71;95.92
70900;BME280;67902;52.154;5.430;2023-12-04T06:29:49;101019.41;;;0.74;95.77
70900;BME280;67902;52.154;5.430;2023-12-04T06:32:19;101021.06;;;0.75;95.16
70900;BME280;67902;52.154;5.430;2023-12-04T06:34:46;101010.41;;;0.75;94.89
70900;BME280;67902;52.154;5.430;2023-12-04T06:37:13;101005.09;;;0.75;94.25
70900;BME280;67902;52.154;5.430;2023-12-04T06:39:40;101011.88;;;0.78;94.69
70900;BME280;67902;52.154;5.430;2023-12-04T06:42:08;101003.91;;;0.78;93.67
70900;BME280;67902;52.154;5.430;2023-12-04T06:44:35;100999.56;;;0.77;94.73
70900;BME280;67902;52.154;5.430;2023-12-04T06:47:02;100992.41;;;0.77;94.81
70900;BME280;67902;52.154;5.430;2023-12-04T06:49:33;100987.91;;;0.78;94.11
70900;BME280;67902;52.154;5.430;2023-12-04T06:52:00;100981.75;;;0.77;93.60
70900;BME280;67902;52.154;5.430;2023-12-04T06:54:27;100980.91;;;0.77;93.78
70900;BME280;67902;52.154;5.430;2023-12-04T06:56:53;100981.75;;;0.77;93.47
70900;BME280;67902;52.154;5.430;2023-12-04T06:59:20;100970.25;;;0.77;94.11
70900;BME280;67902;52.154;5.430;2023-12-04T07:01:47;100971.09;;;0.77;94.33
70900;BME280;67902;52.154;5.430;2023-12-04T07:04:13;100969.41;;;0.76;93.80
70900;BME280;67902;52.154;5.430;2023-12-04T07:06:40;100966.59;;;0.78;93.55
70900;BME280;67902;52.154;5.430;2023-12-04T07:09:07;100964.75;;;0.78;92.55
70900;BME280;67902;52.154;5.430;2023-12-04T07:11:36;100978.09;;;0.78;92.51
70900;BME280;67902;52.154;5.430;2023-12-04T07:14:02;100963.28;;;0.76;92.35
70900;BME280;67902;52.154;5.430;2023-12-04T07:16:29;100954.44;;;0.75;92.97
70900;BME280;67902;52.154;5.430;2023-12-04T07:18:55;100956.09;;;0.76;92.86
70900;BME280;67902;52.154;5.430;2023-12-04T07:21:22;100948.78;;;0.78;92.62
70900;BME280;67902;52.154;5.430;2023-12-04T07:23:48;100941.78;;;0.77;91.83
70900;BME280;67902;52.154;5.430;2023-12-04T07:26:15;100947.09;;;0.77;92.60
70900;BME280;67902;52.154;5.430;2023-12-04T07:28:41;100946.09;;;0.78;92.48
70900;BME280;67902;52.154;5.430;2023-12-04T07:31:08;100940.41;;;0.81;91.50
70900;BME280;67902;52.154;5.430;2023-12-04T07:33:34;100942.69;;;0.84;91.89
70900;BME280;67902;52.154;5.430;2023-12-04T07:36:01;100937.22;;;0.86;91.88
70900;BME280;67902;52.154;5.430;2023-12-04T07:38:28;100941.69;;;0.85;91.84
70900;BME280;67902;52.154;5.430;2023-12-04T07:40:55;100947.03;;;0.85;92.26
70900;BME280;67902;52.154;5.430;2023-12-04T07:43:21;100938.41;;;0.83;91.51
70900;BME280;67902;52.154;5.430;2023-12-04T07:45:47;100936.38;;;0.85;91.62
70900;BME280;67902;52.154;5.430;2023-12-04T07:48:14;100944.22;;;0.87;91.54
70900;BME280;67902;52.154;5.430;2023-12-04T07:50:41;100952.00;;;0.88;90.78
70900;BME280;67902;52.154;5.430;2023-12-04T07:53:07;100933.34;;;0.88;91.24
70900;BME280;67902;52.154;5.430;2023-12-04T07:55:36;100927.88;;;0.90;91.48
70900;BME280;67902;52.154;5.430;2023-12-04T07:58:02;100930.34;;;0.91;91.81
70900;BME280;67902;52.154;5.430;2023-12-04T08:00:29;100931.16;;;0.92;91.08
70900;BME280;67902;52.154;5.430;2023-12-04T08:02:55;100927.31;;;0.94;91.36
70900;BME280;67902;52.154;5.430;2023-12-04T08:05:22;100930.63;;;0.96;91.15
70900;BME280;67902;52.154;5.430;2023-12-04T08:07:48;100935.78;;;0.98;91.63
70900;BME280;67902;52.154;5.430;2023-12-04T08:10:15;100925.75;;;1.00;90.60
70900;BME280;67902;52.154;5.430;2023-12-04T08:12:44;100924.75;;;1.01;90.74
70900;BME280;67902;52.154;5.430;2023-12-04T08:15:11;100928.91;;;1.03;90.93
70900;BME280;67902;52.154;5.430;2023-12-04T08:17:38;100933.22;;;1.04;90.51
70900;BME280;67902;52.154;5.430;2023-12-04T08:20:05;100937.53;;;1.05;90.08
70900;BME280;67902;52.154;5.430;2023-12-04T08:22:32;100935.72;;;1.06;89.91
70900;BME280;67902;52.154;5.430;2023-12-04T08:24:59;100932.84;;;1.07;89.83
70900;BME280;67902;52.154;5.430;2023-12-04T08:27:26;100938.19;;;1.07;89.00
70900;BME280;67902;52.154;5.430;2023-12-04T08:29:53;100931.84;;;1.08;89.37
70900;BME280;67902;52.154;5.430;2023-12-04T08:32:19;100933.53;;;1.09;88.83
70900;BME280;67902;52.154;5.430;2023-12-04T08:34:47;100917.13;;;1.12;87.71
70900;BME280;67902;52.154;5.430;2023-12-04T08:37:14;100930.09;;;1.15;88.33
70900;BME280;67902;52.154;5.430;2023-12-04T08:39:40;100920.13;;;1.17;87.52
70900;BME280;67902;52.154;5.430;2023-12-04T08:42:07;100925.44;;;1.17;86.98
70900;BME280;67902;52.154;5.430;2023-12-04T08:44:43;100908.41;;;1.18;87.49
70900;BME280;67902;52.154;5.430;2023-12-04T08:47:11;100912.38;;;1.23;87.13
70900;BME280;67902;52.154;5.430;2023-12-04T08:49:40;100911.19;;;1.25;86.47
70900;BME280;67902;52.154;5.430;2023-12-04T08:52:14;100904.31;;;1.31;86.22
70900;BME280;67902;52.154;5.430;2023-12-04T08:54:41;100908.06;;;1.36;85.37
70900;BME280;67902;52.154;5.430;2023-12-04T08:57:08;100902.19;;;1.41;85.02
70900;BME280;67902;52.154;5.430;2023-12-04T08:59:36;100894.19;;;1.41;84.50
70900;BME280;67902;52.154;5.430;2023-12-04T09:02:02;100901.66;;;1.45;84.80
70900;BME280;67902;52.154;5.430;2023-12-04T09:04:32;100905.78;;;1.48;84.43
70900;BME280;67902;52.154;5.430;2023-12-04T09:06:59;100889.88;;;1.54;84.03
70900;BME280;67902;52.154;5.430;2023-12-04T09:09:29;100892.00;;;1.59;84.50
70900;BME280;67902;52.154;5.430;2023-12-04T09:11:56;100888.75;;;1.63;84.37
70900;BME280;67902;52.154;5.430;2023-12-04T09:14:23;100889.03;;;1.68;83.82
70900;BME280;67902;52.154;5.430;2023-12-04T09:16:49;100884.81;;;1.74;83.97
70900;BME280;67902;52.154;5.430;2023-12-04T09:19:16;100880.75;;;1.78;83.63
70900;BME280;67902;52.154;5.430;2023-12-04T09:21:43;100880.56;;;1.80;83.35
70900;BME280;67902;52.154;5.430;2023-12-04T09:24:10;100883.69;;;1.83;82.20
70900;BME280;67902;52.154;5.430;2023-12-04T09:26:37;100881.47;;;1.87;82.04
70900;BME280;67902;52.154;5.430;2023-12-04T09:29:03;100882.94;;;1.89;82.02
70900;BME280;67902;52.154;5.430;2023-12-04T09:31:30;100869.22;;;1.92;80.78
70900;BME280;67902;52.154;5.430;2023-12-04T09:33:57;100877.06;;;1.94;80.84
70900;BME280;67902;52.154;5.430;2023-12-04T09:36:24;100869.47;;;1.97;80.98
70900;BME280;67902;52.154;5.430;2023-12-04T09:38:51;100880.81;;;1.99;80.19
70900;BME280;67902;52.154;5.430;2023-12-04T09:41:18;100878.78;;;2.01;79.81
70900;BME280;67902;52.154;5.430;2023-12-04T09:43:45;100871.78;;;2.00;80.25
70900;BME280;67902;52.154;5.430;2023-12-04T09:46:13;100871.97;;;1.99;79.74
70900;BME280;67902;52.154;5.430;2023-12-04T09:48:40;100875.66;;;1.98;80.08
70900;BME280;67902;52.154;5.430;2023-12-04T09:51:10;100878.78;;;2.01;80.04
70900;BME280;67902;52.154;5.430;2023-12-04T09:53:38;100869.72;;;2.02;79.36
70900;BME280;67902;52.154;5.430;2023-12-04T09:56:07;100868.72;;;2.03;78.99
70900;BME280;67902;52.154;5.430;2023-12-04T09:58:39;100871.22;;;2.05;79.63
70900;BME280;67902;52.154;5.430;2023-12-04T10:01:07;100865.47;;;2.08;79.67
70900;BME280;67902;52.154;5.430;2023-12-04T10:03:35;100866.78;;;2.12;79.72
70900;BME280;67902;52.154;5.430;2023-12-04T10:06:01;100865.56;;;2.14;79.19
70900;BME280;67902;52.154;5.430;2023-12-04T10:08:28;100863.34;;;2.18;78.08
70900;BME280;67902;52.154;5.430;2023-12-04T10:10:55;100855.81;;;2.21;78.50
70900;BME280;67902;52.154;5.430;2023-12-04T10:13:21;100859.72;;;2.25;77.01
70900;BME280;67902;52.154;5.430;2023-12-04T10:16:08;100850.13;;;2.31;78.04
70900;BME280;67902;52.154;5.430;2023-12-04T10:18:35;100837.84;;;2.37;77.93
70900;BME280;67902;52.154;5.430;2023-12-04T10:21:01;100831.75;;;2.43;77.97
70900;BME280;67902;52.154;5.430;2023-12-04T10:23:42;100829.31;;;2.48;76.72
70900;BME280;67902;52.154;5.430;2023-12-04T10:26:09;100822.84;;;2.57;76.69
70900;BME280;67902;52.154;5.430;2023-12-04T10:28:58;100824.16;;;2.67;76.48
70900;BME280;67902;52.154;5.430;2023-12-04T10:31:26;100815.56;;;2.72;77.00
70900;BME280;67902;52.154;5.430;2023-12-04T10:33:53;100824.22;;;2.74;76.29
70900;BME280;67902;52.154;5.430;2023-12-04T10:36:21;100821.72;;;2.72;76.22
70900;BME280;67902;52.154;5.430;2023-12-04T10:38:58;100820.09;;;2.71;74.88
70900;BME280;67902;52.154;5.430;2023-12-04T10:41:26;100810.22;;;2.72;75.28
70900;BME280;67902;52.154;5.430;2023-12-04T10:43:53;100806.34;;;2.74;75.09
70900;BME280;67902;52.154;5.430;2023-12-04T10:46:30;100803.28;;;2.77;75.07
70900;BME280;67902;52.154;5.430;2023-12-04T10:48:58;100788.44;;;2.75;74.25
70900;BME280;67902;52.154;5.430;2023-12-04T10:51:27;100785.78;;;2.75;75.08
70900;BME280;67902;52.154;5.430;2023-12-04T10:53:54;100788.44;;;2.75;75.09
70900;BME280;67902;52.154;5.430;2023-12-04T10:56:36;100776.72;;;2.76;75.08
70900;BME280;67902;52.154;5.430;2023-12-04T10:59:10;100781.88;;;2.77;75.34
70900;BME280;67902;52.154;5.430;2023-12-04T11:01:42;100779.63;;;2.81;74.57
70900;BME280;67902;52.154;5.430;2023-12-04T11:04:16;100778.22;;;2.85;74.50
70900;BME280;67902;52.154;5.430;2023-12-04T11:06:49;100771.44;;;2.82;74.49
70900;BME280;67902;52.154;5.430;2023-12-04T11:09:20;100769.59;;;2.83;74.64
70900;BME280;67902;52.154;5.430;2023-12-04T11:11:51;100758.91;;;2.83;74.24
70900;BME280;67902;52.154;5.430;2023-12-04T11:14:22;100754.16;;;2.85;74.30
70900;BME280;67902;52.154;5.430;2023-12-04T11:16:55;100749.03;;;2.83;74.51
70900;BME280;67902;52.154;5.430;2023-12-04T11:19:29;100738.34;;;2.90;75.29
70900;BME280;67902;52.154;5.430;2023-12-04T11:21:58;100744.31;;;2.92;74.98
70900;BME280;67902;52.154;5.430;2023-12-04T11:24:25;100741.03;;;2.90;74.44
70900;BME280;67902;52.154;5.430;2023-12-04T11:26:52;100737.53;;;2.89;74.27
70900;BME280;67902;52.154;5.430;2023-12-04T11:29:20;100731.38;;;2.89;74.28
70900;BME280;67902;52.154;5.430;2023-12-04T11:31:47;100726.03;;;2.89;75.79
70900;BME280;67902;52.154;5.430;2023-12-04T11:34:14;100718.22;;;2.94;75.83
70900;BME280;67902;52.154;5.430;2023-12-04T11:36:41;100715.75;;;2.92;74.73
70900;BME280;67902;52.154;5.430;2023-12-04T11:39:10;100719.06;;;2.95;74.93
70900;BME280;67902;52.154;5.430;2023-12-04T11:41:37;100710.00;;;2.96;75.17
70900;BME280;67902;52.154;5.430;2023-12-04T11:44:12;100706.50;;;2.95;74.95
70900;BME280;67902;52.154;5.430;2023-12-04T11:46:55;100704.88;;;2.94;74.61
70900;BME280;67902;52.154;5.430;2023-12-04T11:51:52;100707.09;;;2.90;74.95
70900;BME280;67902;52.154;5.430;2023-12-04T11:54:21;100711.81;;;2.88;76.24
70900;BME280;67902;52.154;5.430;2023-12-04T11:59:39;100697.13;;;2.78;76.61
70900;BME280;67902;52.154;5.430;2023-12-04T12:02:10;100695.06;;;2.73;75.97
70900;BME280;67902;52.154;5.430;2023-12-04T12:04:37;100700.81;;;2.70;75.34
70900;BME280;67902;52.154;5.430;2023-12-04T12:07:05;100691.34;;;2.68;76.45
70900;BME280;67902;52.154;5.430;2023-12-04T12:09:32;100691.53;;;2.66;75.32
70900;BME280;67902;52.154;5.430;2023-12-04T12:12:01;100695.00;;;2.67;75.74
70900;BME280;67902;52.154;5.430;2023-12-04T12:14:28;100682.47;;;2.67;75.80
70900;BME280;67902;52.154;5.430;2023-12-04T12:16:55;100682.31;;;2.69;75.87
70900;BME280;67902;52.154;5.430;2023-12-04T12:19:21;100678.19;;;2.73;75.90
70900;BME280;67902;52.154;5.430;2023-12-04T12:21:48;100679.06;;;2.80;76.31
70900;BME280;67902;52.154;5.430;2023-12-04T12:24:18;100672.53;;;2.89;75.70
70900;BME280;67902;52.154;5.430;2023-12-04T12:26:46;100667.59;;;2.92;76.40
70900;BME280;67902;52.154;5.430;2023-12-04T12:29:12;100673.38;;;2.96;75.26
70900;BME280;67902;52.154;5.430;2023-12-04T12:31:39;100664.31;;;2.90;74.79
70900;BME280;67902;52.154;5.430;2023-12-04T12:34:06;100663.47;;;2.90;75.69
70900;BME280;67902;52.154;5.430;2023-12-04T12:36:33;100665.97;;;2.91;76.32
70900;BME280;67902;52.154;5.430;2023-12-04T12:39:00;100671.94;;;2.93;76.05
70900;BME280;67902;52.154;5.430;2023-12-04T12:41:30;100670.88;;;2.88;74.73
70900;BME280;67902;52.154;5.430;2023-12-04T12:43:57;100658.31;;;2.82;75.04
70900;BME280;67902;52.154;5.430;2023-12-04T12:46:24;100645.78;;;2.82;75.71
70900;BME280;67902;52.154;5.430;2023-12-04T12:48:52;100644.31;;;2.86;75.43
70900;BME280;67902;52.154;5.430;2023-12-04T12:51:19;100642.31;;;2.88;75.93
70900;BME280;67902;52.154;5.430;2023-12-04T12:53:47;100644.38;;;2.93;76.65
70900;BME280;67902;52.154;5.430;2023-12-04T12:56:18;100634.28;;;2.95;76.07
70900;BME280;67902;52.154;5.430;2023-12-04T12:58:45;100617.00;;;2.98;77.05
70900;BME280;67902;52.154;5.430;2023-12-04T13:01:12;100615.56;;;2.95;76.07
70900;BME280;67902;52.154;5.430;2023-12-04T13:03:39;100608.19;;;2.97;76.81
70900;BME280;67902;52.154;5.430;2023-12-04T13:06:06;100605.75;;;3.02;78.00